createdAt,value
2023-07-24T00:01:52.152Z,1.95
2023-07-24T00:04:17.981Z,1.80
2023-07-24T00:06:43.779Z,2.15
2023-07-24T00:09:09.664Z,2.08
2023-07-24T00:11:35.532Z,2.00
2023-07-24T00:14:01.359Z,2.10
2023-07-24T00:16:27.202Z,2.25
2023-07-24T00:18:53.030Z,2.08
2023-07-24T00:21:18.873Z,2.00
2023-07-24T00:23:44.742Z,2.78
2023-07-24T00:26:10.581Z,2.05
2023-07-24T00:28:36.430Z,2.10
2023-07-24T00:31:02.628Z,1.98
2023-07-24T00:33:29.240Z,2.13
2023-07-24T00:36:01.034Z,2.15
2023-07-24T00:38:26.871Z,2.53
2023-07-24T00:40:52.768Z,2.40
2023-07-24T00:43:18.598Z,2.17
2023-07-24T00:45:45.364Z,2.10
2023-07-24T00:48:11.257Z,2.15
2023-07-24T00:50:37.951Z,2.08
2023-07-24T00:53:04.532Z,2.08
2023-07-24T00:55:30.444Z,2.13
2023-07-24T00:57:58.251Z,2.67
2023-07-24T01:00:24.128Z,1.95
2023-07-24T01:02:50.197Z,2.35
2023-07-24T01:05:17.090Z,1.95
2023-07-24T01:07:42.984Z,1.58
2023-07-24T01:10:09.057Z,2.55
2023-07-24T01:12:34.855Z,2.20
2023-07-24T01:15:06.700Z,2.10
2023-07-24T01:17:33.440Z,1.60
2023-07-24T01:19:59.852Z,1.27
2023-07-24T01:22:25.786Z,1.48
2023-07-24T01:24:51.582Z,1.38
2023-07-24T01:27:35.394Z,1.95
2023-07-24T01:30:01.324Z,1.85
2023-07-24T01:32:27.337Z,1.65
2023-07-24T01:34:53.473Z,1.45
2023-07-24T01:37:21.024Z,1.58
2023-07-24T01:39:47.819Z,2.08
2023-07-24T01:42:13.741Z,1.60
2023-07-24T01:44:39.564Z,1.50
2023-07-24T01:47:05.539Z,1.52
2023-07-24T01:49:31.414Z,1.55
2023-07-24T01:51:58.016Z,1.67
2023-07-24T01:54:24.067Z,1.40
2023-07-24T01:56:49.890Z,2.10
2023-07-24T01:59:15.743Z,1.27
2023-07-24T02:01:42.280Z,1.60
2023-07-24T02:04:08.257Z,1.95
2023-07-24T02:06:34.040Z,1.92
2023-07-24T02:08:59.896Z,1.77
2023-07-24T02:11:25.790Z,1.70
2023-07-24T02:13:51.638Z,1.80
2023-07-24T02:16:17.576Z,1.83
2023-07-24T02:18:43.653Z,1.65
2023-07-24T02:21:09.605Z,2.28
2023-07-24T02:23:35.870Z,1.20
2023-07-24T02:26:01.963Z,1.60
2023-07-24T02:28:27.769Z,1.40
2023-07-24T02:30:56.572Z,1.42
2023-07-24T02:33:23.101Z,1.45
2023-07-24T02:35:49.847Z,1.73
2023-07-24T02:38:15.677Z,1.85
2023-07-24T02:40:41.827Z,2.22
2023-07-24T02:43:07.650Z,1.70
2023-07-24T02:45:39.632Z,1.50
2023-07-24T02:48:06.025Z,1.63
2023-07-24T02:50:33.114Z,1.60
2023-07-24T02:52:59.218Z,1.73
2023-07-24T02:55:25.066Z,1.35
2023-07-24T02:57:51.121Z,1.50
2023-07-24T03:00:17.145Z,1.77
2023-07-24T03:02:43.059Z,1.50
2023-07-24T03:05:09.302Z,1.50
2023-07-24T03:07:35.425Z,1.50
2023-07-24T03:10:04.665Z,1.58
2023-07-24T03:12:30.502Z,1.30
2023-07-24T03:14:56.304Z,1.45
2023-07-24T03:17:22.965Z,1.42
2023-07-24T03:19:49.049Z,1.40
2023-07-24T03:22:14.950Z,1.58
2023-07-24T03:24:40.835Z,1.17
2023-07-24T03:27:06.725Z,1.90
2023-07-24T03:29:32.782Z,1.70
2023-07-24T03:31:58.668Z,2.15
2023-07-24T03:34:24.488Z,1.17
2023-07-24T03:36:50.409Z,1.90
2023-07-24T03:39:22.661Z,1.45
2023-07-24T03:41:48.672Z,1.10
2023-07-24T03:44:14.484Z,1.58
2023-07-24T03:46:40.663Z,1.35
2023-07-24T03:49:07.464Z,1.20
2023-07-24T03:51:33.827Z,1.30
2023-07-24T03:53:59.642Z,1.10
2023-07-24T03:56:25.450Z,0.88
2023-07-24T03:58:51.291Z,1.10
2023-07-24T04:01:17.130Z,1.23
2023-07-24T04:03:43.116Z,1.20
2023-07-24T04:06:10.269Z,1.40
2023-07-24T04:08:36.049Z,1.05
2023-07-24T04:11:01.834Z,1.00
2023-07-24T04:13:27.639Z,2.20
2023-07-24T04:15:53.504Z,1.08
2023-07-24T04:18:19.354Z,1.90
2023-07-24T04:20:45.247Z,1.20
2023-07-24T04:23:11.167Z,1.23
2023-07-24T04:25:36.987Z,0.98
2023-07-24T04:28:02.915Z,0.90
2023-07-24T04:30:28.756Z,1.13
2023-07-24T04:32:54.657Z,1.00
2023-07-24T04:35:20.475Z,0.80
2023-07-24T04:37:46.371Z,0.93
2023-07-24T04:40:12.372Z,0.90
2023-07-24T04:42:38.248Z,1.13
2023-07-24T04:45:04.511Z,1.17
2023-07-24T04:47:30.449Z,0.85
2023-07-24T04:49:56.340Z,1.20
2023-07-24T04:52:22.233Z,0.80
2023-07-24T04:54:48.059Z,1.15
2023-07-24T04:57:13.927Z,1.23
2023-07-24T04:59:39.792Z,0.82
2023-07-24T05:02:05.903Z,1.33
2023-07-24T05:04:31.934Z,0.45
2023-07-24T05:06:57.874Z,1.15
2023-07-24T05:09:23.679Z,1.00
2023-07-24T05:11:49.537Z,0.93
2023-07-24T05:14:15.381Z,0.82
2023-07-24T05:16:41.301Z,0.80
2023-07-24T05:19:07.150Z,1.02
2023-07-24T05:21:33.294Z,1.10
2023-07-24T05:23:59.125Z,0.80
2023-07-24T05:26:25.121Z,0.90
2023-07-24T05:28:54.903Z,0.80
2023-07-24T05:31:21.618Z,0.93
2023-07-24T05:33:47.752Z,1.10
2023-07-24T05:36:20.799Z,0.63
2023-07-24T05:38:47.860Z,1.25
2023-07-24T05:41:15.121Z,1.42
2023-07-24T05:43:41.632Z,0.75
2023-07-24T05:46:09.160Z,0.80
2023-07-24T05:48:35.085Z,0.90
2023-07-24T05:51:00.903Z,1.00
2023-07-24T05:53:26.950Z,1.90
2023-07-24T05:56:02.832Z,1.08
2023-07-24T05:58:28.838Z,1.70
2023-07-24T06:00:59.078Z,2.28
2023-07-24T06:03:29.408Z,1.52
2023-07-24T06:05:56.561Z,1.17
2023-07-24T06:08:23.462Z,1.05
2023-07-24T06:13:42.101Z,1.33
2023-07-24T06:16:19.899Z,1.77
2023-07-24T06:18:54.066Z,1.17
2023-07-24T06:21:31.367Z,1.27
2023-07-24T06:23:58.882Z,1.42
2023-07-24T06:26:26.389Z,1.10
2023-07-24T06:28:52.761Z,1.50
2023-07-24T06:31:22.897Z,1.17
2023-07-24T06:33:50.080Z,1.35
2023-07-24T06:36:18.896Z,1.20
2023-07-24T06:38:47.512Z,1.33
2023-07-24T06:41:17.216Z,1.60
2023-07-24T06:43:44.104Z,1.48
2023-07-24T06:46:19.251Z,1.55
2023-07-24T06:48:45.476Z,1.52
2023-07-24T06:51:11.677Z,1.40
2023-07-24T06:53:38.636Z,1.60
2023-07-24T06:56:09.942Z,1.38
2023-07-24T06:58:36.470Z,1.40
2023-07-24T07:32:15.533Z,1.13
2023-07-24T07:34:42.946Z,1.30
2023-07-24T07:37:10.083Z,1.25
2023-07-24T07:39:37.533Z,1.48
2023-07-24T07:42:16.330Z,1.60
2023-07-24T07:44:44.361Z,1.02
2023-07-24T07:47:16.206Z,1.42
2023-07-24T07:49:42.730Z,1.55
2023-07-24T07:52:08.793Z,1.15
2023-07-24T07:54:40.400Z,1.52
2023-07-24T07:57:07.853Z,1.20
2023-07-24T07:59:36.235Z,1.60
2023-07-24T08:02:05.395Z,1.80
2023-07-24T08:04:36.325Z,1.40
2023-07-24T08:07:03.454Z,1.40
2023-07-24T08:09:29.782Z,1.38
2023-07-24T08:11:56.799Z,1.42
2023-07-24T08:14:23.943Z,1.42
2023-07-24T08:16:52.923Z,1.42
2023-07-24T08:19:20.386Z,1.35
2023-07-24T08:21:47.755Z,1.30
2023-07-24T08:24:42.226Z,1.20
2023-07-24T08:27:09.589Z,1.38
2023-07-24T08:29:39.059Z,1.70
2023-07-24T08:32:06.729Z,1.63
2023-07-24T08:34:33.284Z,1.70
2023-07-24T08:36:59.583Z,1.45
2023-07-24T08:39:27.231Z,1.13
2023-07-24T08:41:57.766Z,1.30
2023-07-24T08:44:27.832Z,1.23
2023-07-24T08:46:54.548Z,1.10
2023-07-24T08:49:28.779Z,1.13
2023-07-24T08:52:01.510Z,1.65
2023-07-24T08:54:47.887Z,1.42
2023-07-24T08:57:14.240Z,1.23
2023-07-24T08:59:43.037Z,1.38
2023-07-24T09:02:09.827Z,1.63
2023-07-24T09:04:39.748Z,1.52
2023-07-24T09:07:16.751Z,1.30
2023-07-24T09:09:48.080Z,1.70
2023-07-24T09:12:17.333Z,1.23
2023-07-24T09:14:45.932Z,1.20
2023-07-24T09:17:14.395Z,1.42
2023-07-24T09:19:43.377Z,1.45
2023-07-24T09:22:11.812Z,1.35
2023-07-24T09:25:28.229Z,1.63
2023-07-24T09:27:58.741Z,1.52
2023-07-24T09:33:10.673Z,1.30
2023-07-24T09:35:37.460Z,1.60
2023-07-24T09:38:09.255Z,1.20
2023-07-24T09:40:47.771Z,1.90
2023-07-24T09:43:39.248Z,1.67
2023-07-24T09:46:08.652Z,1.58
2023-07-24T09:51:08.947Z,1.58
2023-07-24T09:56:50.479Z,2.05
2023-07-24T09:59:23.038Z,1.60
2023-07-24T10:01:50.855Z,1.90
2023-07-24T10:04:21.922Z,2.35
2023-07-24T10:06:49.688Z,2.35
2023-07-24T10:09:21.459Z,1.90
2023-07-24T10:11:50.313Z,2.40
2023-07-24T10:14:17.819Z,2.38
2023-07-24T10:16:46.172Z,2.30
2023-07-24T10:19:17.506Z,2.10
2023-07-24T10:21:55.396Z,1.83
2023-07-24T10:24:41.180Z,3.30
2023-07-24T10:27:10.850Z,2.65
2023-07-24T10:29:40.466Z,2.15
2023-07-24T10:32:20.528Z,2.78
2023-07-24T10:37:17.330Z,2.45
2023-07-24T10:39:46.815Z,2.97
2023-07-24T10:42:14.174Z,2.72
2023-07-24T10:44:40.453Z,3.03
2023-07-24T10:47:08.973Z,2.90
2023-07-24T10:52:35.860Z,3.53
2023-07-24T10:55:04.058Z,2.50
2023-07-24T10:57:32.910Z,3.33
2023-07-24T11:00:04.569Z,2.85
2023-07-24T11:02:33.157Z,3.15
2023-07-24T11:05:01.100Z,2.50
2023-07-24T11:07:37.321Z,3.25
2023-07-24T11:10:03.816Z,2.97
2023-07-24T11:12:32.698Z,3.05
2023-07-24T11:15:02.064Z,3.33
2023-07-24T11:17:36.116Z,2.70
2023-07-24T11:20:28.050Z,3.17
2023-07-24T11:22:59.438Z,2.83
2023-07-24T11:25:39.924Z,3.13
2023-07-24T11:28:16.762Z,3.30
2023-07-24T11:30:48.515Z,3.28
2023-07-24T11:33:19.255Z,3.95
2023-07-24T11:35:46.457Z,3.30
2023-07-24T11:38:14.304Z,3.25
2023-07-24T11:40:42.440Z,3.47
2023-07-24T11:46:12.728Z,3.00
2023-07-24T11:48:46.749Z,3.42
2023-07-24T11:51:27.334Z,2.65
2023-07-24T11:54:33.264Z,3.20
2023-07-24T11:56:59.537Z,2.50
2023-07-24T11:59:26.736Z,2.90
2023-07-24T12:01:53.064Z,3.40
2023-07-24T12:04:19.892Z,3.38
2023-07-24T12:06:46.901Z,3.40
2023-07-24T12:09:13.867Z,2.72
2023-07-24T12:12:06.571Z,2.72
2023-07-24T12:14:32.880Z,2.78
2023-07-24T12:17:03.095Z,2.55
2023-07-24T12:19:29.648Z,3.50
2023-07-24T12:21:56.102Z,2.88
2023-07-24T12:24:36.648Z,2.78
2023-07-24T12:27:03.579Z,3.10
2023-07-24T12:29:30.431Z,2.45
2023-07-24T12:31:57.071Z,2.65
2023-07-24T12:34:23.266Z,2.38
2023-07-24T12:36:53.456Z,2.25
2023-07-24T12:39:21.644Z,2.00
2023-07-24T12:41:51.350Z,2.40
2023-07-24T12:44:17.479Z,2.58
2023-07-24T12:46:44.352Z,2.30
2023-07-24T12:49:15.659Z,2.55
2023-07-24T12:51:42.606Z,3.42
2023-07-24T12:54:39.834Z,2.13
2023-07-24T12:56:59.651Z,2.78
2023-07-24T12:59:27.041Z,2.42
2023-07-24T13:01:56.172Z,1.98
2023-07-24T13:04:25.618Z,2.22
2023-07-24T13:09:32.701Z,2.30
2023-07-24T13:11:58.995Z,2.30
2023-07-24T13:42:45.339Z,2.53
2023-07-24T13:47:41.585Z,2.05
2023-07-24T13:50:09.862Z,2.00
2023-07-24T13:52:36.410Z,2.38
2023-07-24T13:55:02.967Z,1.90
2023-07-24T13:57:31.782Z,2.03
2023-07-24T14:00:00.360Z,2.63
2023-07-24T14:02:32.569Z,2.53
2023-07-24T14:05:00.169Z,2.50
2023-07-24T14:07:27.578Z,2.45
2023-07-24T14:10:12.453Z,3.15
2023-07-24T14:12:39.441Z,2.38
2023-07-24T14:15:06.152Z,2.55
2023-07-24T14:17:32.496Z,2.63
2023-07-24T14:19:58.742Z,2.30
2023-07-24T14:22:28.136Z,2.80
2023-07-24T14:24:54.940Z,2.72
2023-07-24T14:27:21.672Z,1.98
2023-07-24T14:29:50.660Z,6.85
2023-07-24T14:32:19.407Z,3.83
2023-07-24T14:34:48.670Z,2.75
2023-07-24T14:37:15.385Z,2.58
2023-07-24T14:39:41.821Z,2.53
2023-07-24T14:42:08.439Z,3.13
2023-07-24T14:44:34.607Z,2.63
2023-07-24T14:47:01.071Z,2.90
2023-07-24T14:49:28.778Z,3.03
2023-07-24T14:51:55.209Z,3.08
2023-07-24T14:54:22.756Z,3.15
2023-07-24T14:56:57.341Z,3.17
2023-07-24T14:59:32.008Z,2.85
2023-07-24T15:01:59.951Z,2.70
2023-07-24T15:04:28.492Z,2.95
2023-07-24T15:10:35.050Z,2.65
2023-07-24T15:13:02.693Z,2.67
2023-07-24T15:15:30.720Z,3.05
2023-07-24T15:17:57.042Z,2.80
2023-07-24T15:20:24.706Z,3.67
2023-07-24T15:22:54.240Z,3.13
2023-07-24T15:25:21.464Z,2.67
2023-07-24T15:27:57.169Z,3.30
2023-07-24T15:30:23.618Z,2.90
2023-07-24T15:38:02.047Z,2.80
2023-07-24T15:43:51.488Z,3.25
2023-07-24T15:46:20.448Z,2.72
2023-07-24T15:48:46.908Z,2.72
2023-07-24T15:51:13.202Z,2.78
2023-07-24T15:53:39.625Z,2.70
2023-07-24T15:56:07.264Z,2.65
2023-07-24T15:58:36.702Z,2.72
2023-07-24T16:01:02.883Z,2.70
2023-07-24T16:03:30.410Z,3.30
2023-07-24T16:05:56.642Z,3.15
2023-07-24T16:08:24.514Z,3.22
2023-07-24T16:10:50.632Z,2.92
2023-07-24T16:13:16.836Z,3.13
2023-07-24T16:18:12.119Z,2.88
2023-07-24T16:23:07.324Z,2.38
2023-07-24T16:25:33.986Z,2.90
2023-07-24T16:28:00.241Z,2.53
2023-07-24T16:30:27.775Z,3.83
2023-07-24T16:32:54.012Z,2.95
2023-07-24T16:35:20.624Z,3.60
2023-07-24T16:37:50.076Z,2.53
2023-07-24T16:40:33.960Z,2.47
2023-07-24T16:43:03.657Z,2.38
2023-07-24T16:48:03.530Z,2.90
2023-07-24T16:50:30.342Z,3.25
2023-07-24T16:52:56.848Z,3.40
2023-07-24T16:55:23.642Z,2.72
2023-07-24T16:57:50.163Z,1.80
2023-07-24T17:00:16.905Z,1.70
2023-07-24T17:02:43.594Z,1.70
2023-07-24T17:05:09.815Z,1.52
2023-07-24T17:07:36.484Z,1.85
2023-07-24T17:10:12.017Z,3.40
2023-07-24T17:12:40.804Z,3.47
2023-07-24T17:15:18.637Z,3.13
2023-07-24T17:32:19.655Z,2.88
2023-07-24T17:34:47.856Z,1.60
2023-07-24T17:37:28.517Z,1.70
2023-07-24T17:43:04.757Z,1.58
2023-07-24T17:45:31.153Z,2.35
2023-07-24T17:48:00.058Z,2.08
2023-07-24T17:50:56.208Z,2.00
2023-07-24T17:53:28.589Z,2.40
2023-07-24T17:55:56.510Z,2.55
2023-07-24T17:58:25.273Z,2.78
2023-07-24T18:03:34.186Z,2.95
2023-07-24T18:06:05.332Z,2.58
2023-07-24T18:08:43.590Z,2.65
2023-07-24T18:31:27.562Z,5.90
2023-07-24T18:33:58.972Z,4.03
2023-07-24T18:36:26.128Z,3.22
2023-07-24T18:39:05.608Z,3.30
2023-07-24T18:47:31.687Z,3.45
2023-07-24T18:50:03.970Z,3.85
2023-07-24T18:52:32.940Z,3.47
2023-07-24T18:55:00.920Z,3.92
2023-07-24T18:57:27.196Z,2.83
2023-07-24T18:59:54.093Z,3.47
2023-07-24T19:02:23.820Z,3.38
2023-07-24T19:04:55.835Z,2.40
2023-07-24T19:10:10.146Z,2.95
2023-07-24T19:12:38.302Z,3.00
2023-07-24T19:15:05.205Z,3.22
2023-07-24T19:17:33.758Z,2.80
2023-07-24T19:20:01.260Z,3.53
2023-07-24T19:22:27.390Z,2.63
2023-07-24T19:24:54.939Z,2.78
2023-07-24T19:27:24.440Z,2.92
2023-07-24T19:30:09.607Z,3.17
2023-07-24T19:32:39.941Z,5.35
2023-07-24T19:37:49.104Z,3.45
2023-07-24T19:40:15.864Z,3.38
2023-07-24T19:42:44.327Z,3.45
2023-07-24T19:45:10.430Z,3.42
2023-07-24T19:47:36.541Z,3.55
2023-07-24T19:50:07.375Z,3.63
2023-07-24T20:00:59.393Z,4.00
2023-07-24T20:03:34.493Z,3.33
2023-07-24T20:06:07.191Z,3.10
2023-07-24T20:08:42.744Z,4.03
2023-07-24T20:11:09.783Z,3.95
2023-07-24T20:19:02.198Z,4.72
2023-07-24T20:21:29.190Z,4.43
2023-07-24T20:24:00.958Z,4.55
2023-07-24T20:26:26.905Z,4.40
2023-07-24T20:28:52.743Z,4.50
2023-07-24T20:31:18.749Z,4.95
2023-07-24T20:33:44.681Z,4.22
2023-07-24T20:36:13.071Z,4.25
2023-07-24T20:38:38.982Z,4.13
2023-07-24T20:41:04.934Z,4.20
2023-07-24T20:43:30.836Z,4.90
2023-07-24T20:45:57.037Z,3.72
2023-07-24T20:48:24.925Z,3.85
2023-07-24T20:50:50.815Z,4.82
2023-07-24T20:53:16.642Z,4.22
2023-07-24T20:55:42.579Z,4.55
2023-07-24T20:58:10.129Z,3.83
2023-07-24T21:00:36.020Z,4.18
2023-07-24T21:03:01.917Z,4.20
2023-07-24T21:05:27.806Z,4.75
2023-07-24T21:07:55.265Z,3.85
2023-07-24T21:10:21.171Z,4.13
2023-07-24T21:12:47.061Z,4.20
2023-07-24T21:15:12.886Z,3.70
2023-07-24T21:17:38.794Z,4.38
2023-07-24T21:20:04.956Z,4.25
2023-07-24T21:22:30.884Z,2.97
2023-07-24T21:24:57.588Z,3.00
2023-07-24T21:27:23.408Z,2.88
2023-07-24T21:29:52.645Z,2.95
2023-07-24T21:32:18.575Z,2.95
2023-07-24T21:34:44.381Z,2.97
2023-07-24T21:37:10.205Z,2.55
2023-07-24T21:39:36.043Z,2.70
2023-07-24T21:42:01.844Z,2.92
2023-07-24T21:44:27.692Z,2.80
2023-07-24T21:46:53.622Z,2.63
2023-07-24T21:49:19.494Z,2.83
2023-07-24T21:51:45.289Z,2.88
2023-07-24T21:54:11.159Z,3.22
2023-07-24T21:56:37.173Z,2.55
2023-07-24T21:59:03.013Z,3.10
2023-07-24T22:01:29.054Z,3.38
2023-07-24T22:03:55.202Z,2.67
2023-07-24T22:06:21.273Z,3.30
2023-07-24T22:08:47.146Z,2.80
2023-07-24T22:11:14.025Z,3.08
2023-07-24T22:13:41.198Z,2.85
2023-07-24T22:16:07.200Z,2.97
2023-07-24T22:18:33.246Z,2.85
2023-07-24T22:20:59.109Z,3.42
2023-07-24T22:23:25.036Z,3.08
2023-07-24T22:25:51.105Z,3.17
2023-07-24T22:28:17.009Z,2.97
2023-07-24T22:30:42.844Z,4.10
2023-07-24T22:33:08.718Z,2.78
2023-07-24T22:35:34.501Z,2.97
2023-07-24T22:38:01.221Z,3.33
2023-07-24T22:40:31.124Z,3.10
2023-07-24T22:42:57.181Z,3.20
2023-07-24T22:45:23.346Z,2.92
2023-07-24T22:47:49.177Z,3.72
2023-07-24T22:50:15.147Z,3.35
2023-07-24T22:52:41.373Z,2.75
2023-07-24T22:55:07.388Z,3.97
2023-07-24T22:57:33.253Z,3.17
2023-07-24T22:59:59.078Z,2.78
2023-07-24T23:02:24.932Z,2.80
2023-07-24T23:04:50.956Z,3.28
2023-07-24T23:07:17.045Z,2.90
2023-07-24T23:09:42.980Z,3.42
2023-07-24T23:12:09.088Z,2.85
2023-07-24T23:14:34.954Z,2.90
2023-07-24T23:17:00.778Z,2.38
2023-07-24T23:19:26.679Z,2.90
2023-07-24T23:21:52.538Z,2.40
2023-07-24T23:24:18.336Z,2.80
2023-07-24T23:26:44.220Z,2.35
2023-07-24T23:29:10.026Z,2.75
2023-07-24T23:31:35.883Z,2.33
2023-07-24T23:34:01.721Z,2.38
2023-07-24T23:36:27.525Z,2.83
2023-07-24T23:38:53.402Z,2.63
2023-07-24T23:41:19.221Z,2.22
2023-07-24T23:43:45.041Z,2.95
2023-07-24T23:46:11.916Z,2.72
2023-07-24T23:48:38.215Z,2.50
2023-07-24T23:51:04.082Z,2.80
2023-07-24T23:53:29.981Z,2.40
2023-07-24T23:55:55.823Z,2.83
2023-07-24T23:58:21.641Z,3.10
